Time;durP1;ratioP1;P1;durP2;ratioP2;P2;SDS_P1;SDS_P2;PMS_P1;PMS_P2;Temp;Humidity;BMP_temperature;BMP_pressure;BME280_temperature;BME280_humidity;BME280_pressure;Samples;Min_cycle;Max_cycle;Signal;HPM_P1;HPM_P2
2022/09/12 00:01:57;;;;;;;;;;;;;;;15.87;73.34;101671.25;4970603;28;19918;-64
2022/09/12 00:04:22;;;;;;;;;;;;;;;15.83;73.54;101662.47;4970432;28;19914;-64
2022/09/12 00:06:47;;;;;;;;;;;;;;;15.81;73.37;101675.59;4952337;28;19921;-64
2022/09/12 00:09:13;;;;;;;;;;;;;;;15.77;73.59;101665.84;4969411;28;19925;-64
2022/09/12 00:11:39;;;;;;;;;;;;;;;15.76;73.79;101656.19;4969374;28;19911;-63
2022/09/12 00:14:06;;;;;;;;;;;;;;;15.73;73.70;101653.50;4969707;28;19925;-65
2022/09/12 00:16:32;;;;;;;;;;;;;;;15.69;73.64;101650.81;4970099;28;19957;-64
2022/09/12 00:18:58;;;;;;;;;;;;;;;15.67;74.15;101653.44;4971760;28;19917;-65
2022/09/12 00:21:23;;;;;;;;;;;;;;;15.63;74.14;101652.47;4970492;28;19921;-65
2022/09/12 00:23:49;;;;;;;;;;;;;;;15.62;74.03;101647.19;4971365;28;20337;-64
2022/09/12 00:26:16;;;;;;;;;;;;;;;15.61;73.80;101642.78;4972993;28;20433;-60
2022/09/12 00:28:41;;;;;;;;;;;;;;;15.59;73.76;101649.78;4974689;28;19917;-60
2022/09/12 00:31:08;;;;;;;;;;;;;;;15.56;73.73;101648.00;4972265;28;20631;-61
2022/09/12 00:33:33;;;;;;;;;;;;;;;15.53;73.97;101650.56;4973765;28;19965;-60
2022/09/12 00:35:58;;;;;;;;;;;;;;;15.52;73.83;101653.16;4973328;28;19973;-60
2022/09/12 00:38:24;;;;;;;;;;;;;;;15.48;73.75;101644.34;4973422;28;19957;-60
2022/09/12 00:40:49;;;;;;;;;;;;;;;15.46;73.89;101648.69;4972958;28;19961;-60
2022/09/12 00:43:32;;;;;;;;;;;;;;;15.44;73.92;101648.69;4973064;28;19918;-61
2022/09/12 00:45:59;;;;;;;;;;;;;;;15.42;73.85;101642.50;4956280;28;19988;-60
2022/09/12 00:48:30;;;;;;;;;;;;;;;15.40;73.90;101630.22;4973631;28;19969;-60
2022/09/12 00:50:55;;;;;;;;;;;;;;;15.37;74.20;101638.94;4973104;28;20000;-60
2022/09/12 00:53:20;;;;;;;;;;;;;;;15.35;74.24;101637.13;4973048;28;19998;-61
2022/09/12 00:55:48;;;;;;;;;;;;;;;15.33;74.30;101634.47;4973492;28;19960;-61
2022/09/12 00:58:20;;;;;;;;;;;;;;;15.31;73.99;101630.97;4974338;28;19910;-65
2022/09/12 01:00:46;;;;;;;;;;;;;;;15.29;74.48;101630.03;4973268;28;19922;-65
2022/09/12 01:03:13;;;;;;;;;;;;;;;15.25;74.37;101625.56;4971978;28;20764;-65
2022/09/12 01:05:42;;;;;;;;;;;;;;;15.24;74.26;101615.97;4973165;28;20329;-64
2022/09/12 01:08:08;;;;;;;;;;;;;;;15.21;74.40;101613.28;4971641;28;19945;-65
2022/09/12 01:10:34;;;;;;;;;;;;;;;15.18;74.31;101619.38;4972945;28;20418;-65
2022/09/12 01:12:59;;;;;;;;;;;;;;;15.16;74.29;101617.56;4970902;28;19925;-64
2022/09/12 01:15:25;;;;;;;;;;;;;;;15.12;74.28;101612.25;4972748;28;19914;-65
2022/09/12 01:18:02;;;;;;;;;;;;;;;15.10;74.08;101616.59;4973095;28;20344;-65
2022/09/12 01:20:59;;;;;;;;;;;;;;;15.07;74.08;101611.28;4968256;28;19961;-65
2022/09/12 01:23:34;;;;;;;;;;;;;;;15.06;74.45;101613.88;4955421;28;20369;-65
2022/09/12 01:26:09;;;;;;;;;;;;;;;15.04;74.47;101616.47;4956293;28;20325;-65
2022/09/12 01:28:34;;;;;;;;;;;;;;;15.01;74.61;101605.94;4972538;28;20024;-65
2022/09/12 01:31:07;;;;;;;;;;;;;;;14.98;74.31;101603.25;4972359;28;19989;-65
2022/09/12 01:33:35;;;;;;;;;;;;;;;14.96;74.64;101602.34;4971518;28;19918;-65
2022/09/12 01:36:07;;;;;;;;;;;;;;;14.94;74.83;101593.56;4972503;28;19914;-65
2022/09/12 01:38:38;;;;;;;;;;;;;;;14.91;74.52;101583.03;4969002;28;19969;-64
2022/09/12 01:41:10;;;;;;;;;;;;;;;14.89;74.72;101583.00;4972354;28;19914;-65
2022/09/12 01:43:41;;;;;;;;;;;;;;;14.87;74.84;101581.19;4969072;28;19913;-64
2022/09/12 01:46:13;;;;;;;;;;;;;;;14.85;74.73;101598.66;4963166;28;19920;-64
2022/09/12 01:48:43;;;;;;;;;;;;;;;14.83;74.85;101597.72;4971598;28;19980;-64
2022/09/12 01:51:09;;;;;;;;;;;;;;;14.80;74.87;101593.31;4972254;28;19953;-64
2022/09/12 01:53:37;;;;;;;;;;;;;;;14.77;74.71;101591.53;4972157;28;19953;-64
2022/09/12 01:56:06;;;;;;;;;;;;;;;14.76;74.92;101592.38;4972345;28;19926;-65
2022/09/12 01:58:43;;;;;;;;;;;;;;;14.76;74.97;101587.13;4972460;28;20121;-64
2022/09/12 02:01:15;;;;;;;;;;;;;;;14.74;74.78;101580.09;4971974;28;19921;-64
2022/09/12 02:03:45;;;;;;;;;;;;;;;14.71;74.71;101578.28;4972014;28;20203;-64
2022/09/12 02:06:17;;;;;;;;;;;;;;;14.70;74.95;101573.91;4971369;28;19914;-64
2022/09/12 02:09:07;;;;;;;;;;;;;;;14.68;74.83;101575.59;4972211;28;19964;-64
2022/09/12 02:11:34;;;;;;;;;;;;;;;14.66;74.62;101561.59;4969699;28;19914;-64
2022/09/12 02:14:05;;;;;;;;;;;;;;;14.65;74.85;101566.81;4972098;28;19937;-64
2022/09/12 02:16:33;;;;;;;;;;;;;;;14.62;74.78;101561.50;4971554;28;19913;-64
2022/09/12 02:19:01;;;;;;;;;;;;;;;14.60;75.04;101566.69;4972245;28;19924;-64
2022/09/12 02:21:31;;;;;;;;;;;;;;;14.58;74.87;101563.16;4971161;28;19914;-64
2022/09/12 02:23:58;;;;;;;;;;;;;;;14.56;75.20;101571.00;4971497;28;19914;-65
2022/09/12 02:26:27;;;;;;;;;;;;;;;14.56;75.06;101564.88;4972357;28;20432;-61
2022/09/12 02:28:52;;;;;;;;;;;;;;;14.52;75.35;101569.16;4970551;28;20435;-60
2022/09/12 02:31:27;;;;;;;;;;;;;;;14.51;75.09;101566.50;4971912;28;19914;-61
2022/09/12 02:33:55;;;;;;;;;;;;;;;14.48;75.28;101569.06;4969447;28;20079;-60
2022/09/12 02:36:30;;;;;;;;;;;;;;;14.47;75.16;101581.31;4971249;28;20001;-60
2022/09/12 02:38:55;;;;;;;;;;;;;;;14.46;75.35;101569.03;4971786;28;19921;-61
2022/09/12 02:41:21;;;;;;;;;;;;;;;14.43;75.40;101569.88;4970420;28;20472;-60
2022/09/12 02:43:47;;;;;;;;;;;;;;;14.40;75.35;101571.56;4969859;28;19930;-61
2022/09/12 02:46:33;;;;;;;;;;;;;;;14.39;75.20;101573.28;4971267;28;19968;-60
2022/09/12 02:48:58;;;;;;;;;;;;;;;14.36;75.33;101554.00;4970532;28;20333;-61
2022/09/12 02:51:24;;;;;;;;;;;;;;;14.32;75.38;101560.91;4971058;28;20008;-61
2022/09/12 02:53:50;;;;;;;;;;;;;;;14.32;75.51;101554.78;4970338;28;19997;-61
2022/09/12 02:56:23;;;;;;;;;;;;;;;14.29;75.45;101550.34;4970246;28;19940;-60
2022/09/12 02:58:49;;;;;;;;;;;;;;;14.27;75.66;101552.09;4971429;28;19917;-61
2022/09/12 03:01:27;;;;;;;;;;;;;;;14.26;75.58;101547.69;4971158;28;19921;-61
2022/09/12 03:04:01;;;;;;;;;;;;;;;14.22;75.58;101545.84;4971007;28;20013;-60
2022/09/12 03:06:34;;;;;;;;;;;;;;;14.21;75.62;101549.34;4967139;28;19914;-61
2022/09/12 03:09:00;;;;;;;;;;;;;;;14.19;75.71;101538.84;4970342;28;19924;-60
2022/09/12 03:11:28;;;;;;;;;;;;;;;14.16;75.71;101538.75;4971248;28;20001;-60
2022/09/12 03:13:56;;;;;;;;;;;;;;;14.16;75.99;101540.50;4970107;28;19921;-61
2022/09/12 03:16:27;;;;;;;;;;;;;;;14.15;76.04;101536.09;4970956;28;19922;-61
2022/09/12 03:19:10;;;;;;;;;;;;;;;14.12;75.85;101531.69;4970800;28;19968;-60
2022/09/12 03:21:44;;;;;;;;;;;;;;;14.11;75.87;101529.00;4969818;28;20368;-61
2022/09/12 03:24:16;;;;;;;;;;;;;;;14.09;76.01;101534.22;4952897;28;19930;-60
2022/09/12 03:26:47;;;;;;;;;;;;;;;14.08;75.97;101530.75;4970999;28;20005;-64
2022/09/12 03:29:13;;;;;;;;;;;;;;;14.07;76.14;101531.59;4969236;28;20505;-64
2022/09/12 03:31:47;;;;;;;;;;;;;;;14.05;76.07;101533.31;4969899;28;19914;-65
2022/09/12 03:34:12;;;;;;;;;;;;;;;14.05;76.20;101527.19;4969961;28;19997;-64
2022/09/12 03:36:39;;;;;;;;;;;;;;;14.04;76.16;101535.91;4971012;28;20009;-65
2022/09/12 03:39:05;;;;;;;;;;;;;;;14.02;76.37;101530.63;4970564;28;19914;-65
2022/09/12 03:41:30;;;;;;;;;;;;;;;14.02;76.33;101534.97;4970830;28;20341;-64
2022/09/12 03:43:55;;;;;;;;;;;;;;;14.00;76.32;101534.06;4970983;28;20376;-64
2022/09/12 03:46:21;;;;;;;;;;;;;;;13.99;76.39;101527.03;4967633;28;19969;-64
2022/09/12 03:48:46;;;;;;;;;;;;;;;13.98;76.38;101533.16;4970560;28;20398;-64
2022/09/12 03:51:11;;;;;;;;;;;;;;;13.96;76.49;101535.75;4970215;28;20005;-64
2022/09/12 03:53:36;;;;;;;;;;;;;;;13.94;76.63;101526.94;4970862;28;19918;-64
2022/09/12 03:56:08;;;;;;;;;;;;;;;13.95;76.72;101527.81;4970981;28;19922;-64
2022/09/12 03:58:35;;;;;;;;;;;;;;;13.93;76.59;101525.19;4971777;28;19914;-65
2022/09/12 04:01:00;;;;;;;;;;;;;;;13.91;76.71;101522.53;4974393;28;19914;-64
2022/09/12 04:03:25;;;;;;;;;;;;;;;13.90;76.72;101526.03;4957015;28;19957;-65
2022/09/12 04:05:50;;;;;;;;;;;;;;;13.90;76.76;101519.88;4973798;28;19980;-65
2022/09/12 04:08:16;;;;;;;;;;;;;;;13.88;76.82;101524.22;4974264;28;19960;-64
2022/09/12 04:10:41;;;;;;;;;;;;;;;13.86;76.77;101518.94;4973265;28;20301;-64
2022/09/12 04:13:06;;;;;;;;;;;;;;;13.84;76.79;101520.63;4973965;28;19921;-64
2022/09/12 04:15:31;;;;;;;;;;;;;;;13.83;76.75;101512.75;4974029;28;19924;-64
2022/09/12 04:17:57;;;;;;;;;;;;;;;13.83;76.85;101515.34;4973533;28;20000;-64
2022/09/12 04:20:22;;;;;;;;;;;;;;;13.82;76.87;101511.00;4956554;28;19918;-64
2022/09/12 04:22:47;;;;;;;;;;;;;;;13.80;76.91;101513.59;4974115;28;19918;-64
2022/09/12 04:25:12;;;;;;;;;;;;;;;13.80;76.84;101507.44;4973895;28;19917;-64
2022/09/12 04:27:38;;;;;;;;;;;;;;;13.79;77.04;101506.56;4973508;28;20451;-60
2022/09/12 04:30:03;;;;;;;;;;;;;;;13.79;76.91;101500.44;4971776;28;20005;-60
2022/09/12 04:32:29;;;;;;;;;;;;;;;13.78;76.99;101509.16;4973711;28;20274;-60
2022/09/12 04:34:55;;;;;;;;;;;;;;;13.78;77.12;101503.91;4971707;28;20406;-60
2022/09/12 04:37:21;;;;;;;;;;;;;;;13.77;77.34;101495.16;4974462;28;19986;-60
2022/09/12 04:39:48;;;;;;;;;;;;;;;13.77;77.16;101496.91;4972893;28;19941;-60
2022/09/12 04:42:13;;;;;;;;;;;;;;;13.74;77.42;101501.25;4973705;28;19918;-60
2022/09/12 04:44:38;;;;;;;;;;;;;;;13.73;77.41;101491.59;4973435;28;19914;-60
2022/09/12 04:47:03;;;;;;;;;;;;;;;13.73;77.53;101491.59;4973421;28;19921;-61
2022/09/12 04:49:29;;;;;;;;;;;;;;;13.71;77.60;101487.19;4972435;28;20001;-60
2022/09/12 04:51:54;;;;;;;;;;;;;;;13.70;77.72;101493.25;4973882;28;19997;-60
2022/09/12 04:54:19;;;;;;;;;;;;;;;13.67;77.53;101491.47;4973562;28;19913;-60
2022/09/12 04:56:46;;;;;;;;;;;;;;;13.67;77.76;101495.81;4955378;28;20288;-59
2022/09/12 04:59:12;;;;;;;;;;;;;;;13.67;77.76;101498.44;4973453;28;19914;-59
2022/09/12 05:01:37;;;;;;;;;;;;;;;13.66;77.88;101494.94;4972144;28;20009;-60
2022/09/12 05:04:03;;;;;;;;;;;;;;;13.65;77.96;101500.16;4972852;28;19996;-59
2022/09/12 05:06:30;;;;;;;;;;;;;;;13.65;77.92;101502.78;4973743;28;19989;-59
2022/09/12 05:08:57;;;;;;;;;;;;;;;13.64;78.04;101504.47;4972592;28;20394;-59
2022/09/12 05:11:23;;;;;;;;;;;;;;;13.63;78.02;101505.34;4972464;28;19917;-60
2022/09/12 05:13:48;;;;;;;;;;;;;;;13.63;78.05;101500.13;4971077;28;19918;-60
2022/09/12 05:16:15;;;;;;;;;;;;;;;13.62;78.20;101508.81;4973747;28;19917;-60
2022/09/12 05:18:40;;;;;;;;;;;;;;;13.61;78.31;101506.16;4972232;28;19980;-60
2022/09/12 05:21:08;;;;;;;;;;;;;;;13.60;78.46;101502.69;4973808;28;19960;-60
2022/09/12 05:23:33;;;;;;;;;;;;;;;13.62;78.88;101510.56;4972707;28;19913;-61
2022/09/12 05:25:59;;;;;;;;;;;;;;;13.62;78.70;101503.59;4973024;28;19917;-60
2022/09/12 05:28:28;;;;;;;;;;;;;;;13.61;78.73;101506.16;4971992;28;20013;-64
2022/09/12 05:31:04;;;;;;;;;;;;;;;13.60;78.76;101501.78;4973717;28;19910;-64
2022/09/12 05:33:29;;;;;;;;;;;;;;;13.61;78.95;101512.28;4971202;28;20459;-66
2022/09/12 05:35:55;;;;;;;;;;;;;;;13.59;78.88;101500.91;4972660;28;20417;-64
2022/09/12 05:38:20;;;;;;;;;;;;;;;13.61;78.82;101501.81;4972814;28;20459;-64
2022/09/12 05:40:45;;;;;;;;;;;;;;;13.61;78.93;101496.56;4971460;28;19961;-64
2022/09/12 05:43:13;;;;;;;;;;;;;;;13.62;78.93;101510.56;4972594;28;19918;-65
2022/09/12 05:45:40;;;;;;;;;;;;;;;13.62;78.89;101502.72;4972823;28;19964;-64
2022/09/12 05:48:05;;;;;;;;;;;;;;;13.63;79.05;101513.22;4972383;28;19914;-65
2022/09/12 05:50:31;;;;;;;;;;;;;;;13.61;79.32;101507.03;4971674;28;19980;-64
2022/09/12 05:52:56;;;;;;;;;;;;;;;13.62;79.39;101503.59;4972391;28;19972;-64
2022/09/12 05:55:22;;;;;;;;;;;;;;;13.62;79.40;101507.94;4972025;28;20005;-64
2022/09/12 05:57:47;;;;;;;;;;;;;;;13.61;79.39;101508.78;4971842;28;19918;-64
2022/09/12 06:00:13;;;;;;;;;;;;;;;13.64;79.75;101516.69;4971550;28;19957;-64
2022/09/12 06:02:39;;;;;;;;;;;;;;;13.63;79.80;101509.69;4948750;28;20009;-65
2022/09/12 06:05:04;;;;;;;;;;;;;;;13.64;79.97;101517.56;4967149;28;20004;-64
2022/09/12 06:07:30;;;;;;;;;;;;;;;13.63;80.11;101523.69;4972131;28;19918;-64
2022/09/12 06:09:58;;;;;;;;;;;;;;;13.64;80.15;101525.44;4970897;28;19918;-64
2022/09/12 06:12:25;;;;;;;;;;;;;;;13.65;80.23;101529.84;4970702;28;19937;-64
2022/09/12 06:14:50;;;;;;;;;;;;;;;13.64;80.37;101525.44;4972124;28;19914;-65
2022/09/12 06:17:15;;;;;;;;;;;;;;;13.65;80.36;101516.75;4954427;28;19964;-64
2022/09/12 06:19:41;;;;;;;;;;;;;;;13.68;80.39;101522.03;4970923;28;19946;-64
2022/09/12 06:22:06;;;;;;;;;;;;;;;13.68;80.60;101519.41;4948866;28;19928;-64
2022/09/12 06:24:31;;;;;;;;;;;;;;;13.69;80.70;101520.31;4960089;28;19914;-65
2022/09/12 06:26:56;;;;;;;;;;;;;;;13.68;80.99;101519.41;4962249;28;19914;-64
2022/09/12 06:29:21;;;;;;;;;;;;;;;13.69;80.90;101521.19;4963430;28;20397;-64
2022/09/12 06:31:47;;;;;;;;;;;;;;;13.70;80.92;101519.44;4963528;28;19917;-64
2022/09/12 06:34:14;;;;;;;;;;;;;;;13.69;81.00;101509.84;4962427;28;19914;-65
2022/09/12 06:36:40;;;;;;;;;;;;;;;13.70;81.00;101508.97;4962847;28;20024;-64
2022/09/12 06:39:07;;;;;;;;;;;;;;;13.69;81.16;101515.97;4969256;28;19952;-64
2022/09/12 06:41:33;;;;;;;;;;;;;;;13.69;81.30;101510.72;4970366;28;19906;-64
2022/09/12 06:43:59;;;;;;;;;;;;;;;13.69;81.20;101515.09;4971453;28;19922;-63
2022/09/12 06:46:24;;;;;;;;;;;;;;;13.71;81.41;101513.38;4971191;28;19921;-63
2022/09/12 06:48:50;;;;;;;;;;;;;;;13.69;81.37;101507.22;4971319;28;20388;-63
2022/09/12 06:51:16;;;;;;;;;;;;;;;13.71;81.39;101508.13;4970529;28;20349;-63
2022/09/12 06:53:43;;;;;;;;;;;;;;;13.71;81.64;101511.63;4971054;28;20338;-63
2022/09/12 06:56:12;;;;;;;;;;;;;;;13.71;81.70;101508.13;4953999;28;19920;-63
2022/09/12 06:58:37;;;;;;;;;;;;;;;13.72;81.57;101508.16;4953463;28;20517;-64
2022/09/12 07:01:22;;;;;;;;;;;;;;;13.74;81.82;101511.72;4969238;28;19918;-64
2022/09/12 07:03:49;;;;;;;;;;;;;;;13.76;81.78;101511.75;4970733;28;19991;-65
2022/09/12 07:06:15;;;;;;;;;;;;;;;13.77;81.90;101508.25;4971209;28;19964;-64
2022/09/12 07:08:41;;;;;;;;;;;;;;;13.80;81.98;101502.19;4971048;28;19922;-64
2022/09/12 07:11:11;;;;;;;;;;;;;;;13.83;82.37;101502.25;4971749;28;19913;-64
2022/09/12 07:13:36;;;;;;;;;;;;;;;13.85;82.56;101504.06;4969974;28;19954;-64
2022/09/12 07:16:02;;;;;;;;;;;;;;;13.86;82.56;101502.31;4970762;28;19961;-64
2022/09/12 07:18:28;;;;;;;;;;;;;;;13.89;82.74;101507.66;4970097;28;19914;-65
2022/09/12 07:20:53;;;;;;;;;;;;;;;13.91;82.75;101506.81;4969843;28;19921;-64
2022/09/12 07:23:19;;;;;;;;;;;;;;;13.94;82.90;101498.13;4969353;28;19918;-64
2022/09/12 07:25:50;;;;;;;;;;;;;;;13.95;83.11;101492.03;4971932;28;19964;-60
2022/09/12 07:28:16;;;;;;;;;;;;;;;13.99;83.20;101491.25;4970445;28;19918;-59
2022/09/12 07:30:41;;;;;;;;;;;;;;;14.01;83.49;101491.28;4969769;28;19921;-60
2022/09/12 07:33:06;;;;;;;;;;;;;;;14.05;83.76;101490.50;4970586;28;19997;-62
2022/09/12 07:35:32;;;;;;;;;;;;;;;14.09;83.73;101489.69;4974908;28;19914;-60
2022/09/12 07:37:57;;;;;;;;;;;;;;;14.14;84.51;101493.28;4974131;28;20329;-60
2022/09/12 07:40:23;;;;;;;;;;;;;;;14.20;85.29;101492.53;4957982;28;19960;-60
2022/09/12 07:42:48;;;;;;;;;;;;;;;14.24;85.46;101495.22;4973650;28;19910;-60
2022/09/12 07:45:14;;;;;;;;;;;;;;;14.31;85.94;101495.34;4974655;28;19921;-60
2022/09/12 07:47:39;;;;;;;;;;;;;;;14.33;85.35;101494.50;4973719;28;19915;-60
2022/09/12 07:50:05;;;;;;;;;;;;;;;14.39;85.04;101497.25;4974720;28;20381;-60
2022/09/12 07:52:30;;;;;;;;;;;;;;;14.46;85.41;101502.63;4973537;28;19918;-60
2022/09/12 07:54:55;;;;;;;;;;;;;;;14.51;85.89;101498.31;4974680;28;19914;-60
2022/09/12 07:57:20;;;;;;;;;;;;;;;14.57;85.33;101506.28;4973495;28;20408;-60
2022/09/12 07:59:45;;;;;;;;;;;;;;;14.63;86.10;101509.09;4974439;28;19968;-59
2022/09/12 08:02:12;;;;;;;;;;;;;;;14.69;86.46;101506.56;4972795;28;19914;-60
2022/09/12 08:04:38;;;;;;;;;;;;;;;14.74;85.65;101502.28;4974516;28;19921;-60
2022/09/12 08:07:03;;;;;;;;;;;;;;;14.80;86.41;101500.59;4974742;28;19914;-60
2022/09/12 08:09:28;;;;;;;;;;;;;;;14.85;86.37;101496.34;4973595;28;19918;-60
2022/09/12 08:11:54;;;;;;;;;;;;;;;14.91;87.20;101499.06;4974757;28;20484;-60
2022/09/12 08:14:20;;;;;;;;;;;;;;;14.96;86.84;101507.84;4974005;28;19929;-60
2022/09/12 08:16:45;;;;;;;;;;;;;;;15.02;87.38;101499.19;4973088;28;19918;-60
2022/09/12 08:19:10;;;;;;;;;;;;;;;15.08;87.11;101500.19;4973684;28;19914;-60
2022/09/12 08:21:36;;;;;;;;;;;;;;;15.15;86.89;101502.91;4973133;28;19921;-60
2022/09/12 08:24:03;;;;;;;;;;;;;;;15.22;87.19;101504.78;4973772;28;19921;-60
2022/09/12 08:26:29;;;;;;;;;;;;;;;15.30;87.02;101514.53;4974057;28;19980;-63
2022/09/12 08:28:54;;;;;;;;;;;;;;;15.38;87.62;101505.88;4973073;28;19921;-63
2022/09/12 08:31:20;;;;;;;;;;;;;;;15.45;87.12;101513.88;4973095;28;19955;-63
2022/09/12 08:33:46;;;;;;;;;;;;;;;15.55;87.78;101514.00;4974524;28;19952;-63
2022/09/12 08:36:11;;;;;;;;;;;;;;;15.64;87.97;101514.13;4972627;28;19953;-63
2022/09/12 08:38:40;;;;;;;;;;;;;;;15.73;87.72;101519.50;4972394;28;19952;-64
2022/09/12 08:41:10;;;;;;;;;;;;;;;15.84;87.56;101521.44;4973083;28;20000;-63
2022/09/12 08:43:38;;;;;;;;;;;;;;;15.94;87.34;101516.28;4972747;28;20525;-63
2022/09/12 08:46:23;;;;;;;;;;;;;;;16.07;88.16;101519.06;4973371;28;19922;-63
2022/09/12 08:48:50;;;;;;;;;;;;;;;16.21;87.39;101514.88;4974458;28;19920;-64
2022/09/12 08:51:18;;;;;;;;;;;;;;;16.32;88.09;101518.50;4972412;28;19917;-63
2022/09/12 08:53:46;;;;;;;;;;;;;;;16.45;86.47;101510.72;4972385;28;19918;-64
2022/09/12 08:56:11;;;;;;;;;;;;;;;16.54;86.85;101507.28;4971816;28;20271;-60
2022/09/12 08:58:38;;;;;;;;;;;;;;;16.63;86.86;101508.25;4973335;28;20432;-59
2022/09/12 09:01:04;;;;;;;;;;;;;;;16.76;86.63;101500.50;4973169;28;20400;-60
2022/09/12 09:03:29;;;;;;;;;;;;;;;16.85;86.29;101509.31;4971032;28;20038;-60
2022/09/12 09:06:00;;;;;;;;;;;;;;;16.94;86.10;101503.28;4973270;28;20293;-60
2022/09/12 09:08:31;;;;;;;;;;;;;;;17.07;86.32;101506.03;4954176;28;19925;-60
2022/09/12 09:10:56;;;;;;;;;;;;;;;17.19;85.87;101507.00;4972893;28;19940;-60
2022/09/12 09:16:10;;;;;;;;;;;;;;;17.43;85.48;101499.25;4973606;28;19964;-60
2022/09/12 09:18:37;;;;;;;;;;;;;;;17.52;85.14;101497.56;4973160;28;19941;-60
2022/09/12 09:21:18;;;;;;;;;;;;;;;17.62;84.54;101494.94;4973450;28;19914;-60
2022/09/12 09:23:45;;;;;;;;;;;;;;;17.72;84.56;101487.06;4972925;28;19921;-60
2022/09/12 09:26:26;;;;;;;;;;;;;;;17.85;84.42;101481.88;4969887;28;19936;-63
2022/09/12 09:28:57;;;;;;;;;;;;;;;17.97;84.11;101483.69;4971946;28;19913;-63
2022/09/12 09:31:23;;;;;;;;;;;;;;;18.08;83.77;101482.84;4969671;28;19949;-64
2022/09/12 09:33:50;;;;;;;;;;;;;;;18.20;83.81;101482.00;4971885;28;19921;-64
2022/09/12 09:36:30;;;;;;;;;;;;;;;18.29;83.48;101482.91;4954295;28;20333;-64
2022/09/12 09:39:04;;;;;;;;;;;;;;;18.39;82.83;101484.66;4972119;28;20369;-64
2022/09/12 09:41:36;;;;;;;;;;;;;;;18.54;82.70;101478.56;4972542;28;19917;-64
2022/09/12 09:44:02;;;;;;;;;;;;;;;18.68;81.86;101475.91;4971870;28;19992;-64
2022/09/12 09:46:27;;;;;;;;;;;;;;;18.77;80.58;101471.50;4971364;28;19957;-65
2022/09/12 09:48:52;;;;;;;;;;;;;;;18.87;80.63;101474.16;4972158;28;20004;-64
2022/09/12 09:51:32;;;;;;;;;;;;;;;18.96;80.30;101468.00;4973441;28;20301;-64
2022/09/12 09:54:02;;;;;;;;;;;;;;;19.05;79.79;101460.94;4974846;28;19921;-64
2022/09/12 09:56:32;;;;;;;;;;;;;;;19.14;79.29;101460.03;4972545;28;19933;-65
2022/09/12 09:59:07;;;;;;;;;;;;;;;19.25;79.27;101457.41;4971810;28;19941;-65
2022/09/12 10:01:32;;;;;;;;;;;;;;;19.37;79.04;101453.84;4971201;28;20180;-64
2022/09/12 10:03:58;;;;;;;;;;;;;;;19.50;78.97;101446.75;4970728;28;19914;-65
2022/09/12 10:06:31;;;;;;;;;;;;;;;19.57;78.03;101449.34;4970846;28;20377;-64
2022/09/12 10:09:15;;;;;;;;;;;;;;;19.66;77.23;101434.34;4960240;28;19914;-64
2022/09/12 10:11:41;;;;;;;;;;;;;;;19.78;76.68;101439.56;4969046;28;19918;-64
2022/09/12 10:14:25;;;;;;;;;;;;;;;19.88;77.06;101433.34;4971387;28;19984;-65
2022/09/12 10:16:53;;;;;;;;;;;;;;;20.00;76.30;101434.19;4971013;28;20081;-65
2022/09/12 10:19:35;;;;;;;;;;;;;;;20.07;76.16;101426.19;4970818;28;20495;-64
2022/09/12 10:22:02;;;;;;;;;;;;;;;20.15;75.96;101419.09;4969126;28;20373;-65
2022/09/12 10:24:40;;;;;;;;;;;;;;;20.25;75.00;101425.19;4970703;28;19928;-65
2022/09/12 10:27:11;;;;;;;;;;;;;;;20.33;75.47;101419.84;4970779;28;19917;-61
2022/09/12 10:29:44;;;;;;;;;;;;;;;20.38;74.69;101415.41;4966773;28;20392;-61
2022/09/12 10:32:11;;;;;;;;;;;;;;;20.44;74.88;101410.03;4967992;28;19922;-61
2022/09/12 10:34:44;;;;;;;;;;;;;;;20.51;75.24;101410.88;4972242;28;19910;-61
2022/09/12 10:37:39;;;;;;;;;;;;;;;20.59;74.04;101406.38;4970750;28;19917;-61
2022/09/12 10:40:21;;;;;;;;;;;;;;;20.69;73.65;101409.00;4963293;28;19925;-61
2022/09/12 10:42:48;;;;;;;;;;;;;;;20.76;73.82;101403.59;4970074;28;19917;-61
2022/09/12 10:45:36;;;;;;;;;;;;;;;20.84;74.46;101400.88;4969784;28;19910;-61
2022/09/12 10:48:21;;;;;;;;;;;;;;;20.92;73.19;101404.34;4970254;28;19922;-61
2022/09/12 10:50:46;;;;;;;;;;;;;;;21.00;73.92;101391.00;4969921;28;19914;-61
2022/09/12 10:53:12;;;;;;;;;;;;;;;21.07;72.52;101391.81;4970208;28;19928;-61
2022/09/12 10:55:40;;;;;;;;;;;;;;;21.13;72.48;101381.13;4968303;28;19914;-61
2022/09/12 10:58:13;;;;;;;;;;;;;;;21.19;72.33;101375.78;4969947;28;19921;-64
2022/09/12 11:00:44;;;;;;;;;;;;;;;21.27;71.93;101373.03;4969930;28;19918;-64
2022/09/12 11:03:21;;;;;;;;;;;;;;;21.33;72.74;101373.84;4968576;28;19921;-65
2022/09/12 11:05:54;;;;;;;;;;;;;;;21.42;71.81;101371.94;4971072;28;19954;-64
2022/09/12 11:08:35;;;;;;;;;;;;;;;21.49;71.42;101363.91;4953290;28;19968;-65
2022/09/12 11:11:06;;;;;;;;;;;;;;;21.57;70.57;101366.47;4971344;28;19914;-64
2022/09/12 11:13:34;;;;;;;;;;;;;;;21.63;70.25;101357.56;4970576;28;20044;-65
2022/09/12 11:16:05;;;;;;;;;;;;;;;21.70;70.51;101361.88;4969120;28;19918;-65
2022/09/12 11:18:30;;;;;;;;;;;;;;;21.77;69.07;101362.66;4969935;28;20365;-65
2022/09/12 11:21:08;;;;;;;;;;;;;;;21.82;68.41;101363.47;4966390;28;19929;-65
2022/09/12 11:23:46;;;;;;;;;;;;;;;21.88;68.67;101351.00;4970884;28;20038;-64
2022/09/12 11:26:17;;;;;;;;;;;;;;;21.93;68.13;101348.28;4968164;28;19920;-65
2022/09/12 11:28:46;;;;;;;;;;;;;;;21.97;67.87;101355.28;4969840;28;19968;-64
2022/09/12 11:31:11;;;;;;;;;;;;;;;22.03;69.06;101351.66;4970041;28;19957;-64
2022/09/12 11:33:44;;;;;;;;;;;;;;;22.08;67.79;101352.44;4971752;28;19956;-65
2022/09/12 11:36:15;;;;;;;;;;;;;;;22.14;67.14;101346.16;4969721;28;19965;-65
2022/09/12 11:38:48;;;;;;;;;;;;;;;22.19;67.11;101347.84;4970532;28;19925;-65
2022/09/12 11:41:19;;;;;;;;;;;;;;;22.24;67.27;101347.78;4970492;28;19980;-65
2022/09/12 11:43:44;;;;;;;;;;;;;;;22.29;66.47;101345.94;4971025;28;20012;-64
2022/09/12 11:46:17;;;;;;;;;;;;;;;22.33;66.69;101347.66;4970655;28;20001;-65
2022/09/12 11:49:01;;;;;;;;;;;;;;;22.38;65.83;101355.53;4951208;28;19972;-64
2022/09/12 11:51:36;;;;;;;;;;;;;;;22.49;66.34;101350.03;4970845;28;19918;-64
2022/09/12 11:54:04;;;;;;;;;;;;;;;22.55;66.49;101357.88;4971471;28;20374;-65
2022/09/12 11:56:29;;;;;;;;;;;;;;;22.59;66.97;101354.25;4971074;28;20382;-61
2022/09/12 11:59:00;;;;;;;;;;;;;;;22.65;67.78;101354.19;4969462;28;19914;-62
2022/09/12 12:01:29;;;;;;;;;;;;;;;22.71;67.09;101359.38;4968932;28;20415;-61
2022/09/12 12:03:56;;;;;;;;;;;;;;;22.76;67.23;101353.97;4970568;28;19968;-61
2022/09/12 12:06:28;;;;;;;;;;;;;;;22.80;64.82;101336.19;4969899;28;20021;-62
2022/09/12 12:08:54;;;;;;;;;;;;;;;22.87;64.03;101333.38;4949355;28;20005;-61
2022/09/12 12:11:40;;;;;;;;;;;;;;;22.92;62.63;101328.81;4969072;28;20445;-62
2022/09/12 12:14:05;;;;;;;;;;;;;;;22.98;64.23;101335.81;4969577;28;19956;-61
2022/09/12 12:16:32;;;;;;;;;;;;;;;23.02;64.33;101336.63;4970005;28;20377;-62
2022/09/12 12:18:59;;;;;;;;;;;;;;;23.09;62.95;101343.56;4969016;28;19914;-61
2022/09/12 12:21:28;;;;;;;;;;;;;;;23.14;63.92;101331.06;4972710;28;19929;-61
2022/09/12 12:24:08;;;;;;;;;;;;;;;23.19;63.85;101334.53;4973984;28;19910;-62
2022/09/12 12:26:39;;;;;;;;;;;;;;;23.23;62.71;101328.25;4974477;28;19917;-61
2022/09/12 12:29:10;;;;;;;;;;;;;;;23.26;60.56;101322.00;4972836;28;19988;-61
2022/09/12 12:31:54;;;;;;;;;;;;;;;23.32;63.04;101321.84;4971971;28;20378;-62
2022/09/12 12:34:25;;;;;;;;;;;;;;;23.37;62.29;101319.94;4972679;28;20391;-61
2022/09/12 12:36:50;;;;;;;;;;;;;;;23.44;62.08;101323.34;4971825;28;20399;-62
2022/09/12 12:39:31;;;;;;;;;;;;;;;23.45;61.09;101319.78;4971890;28;19921;-61
2022/09/12 12:41:56;;;;;;;;;;;;;;;23.48;60.13;101321.47;4966952;28;19917;-61
2022/09/12 12:44:40;;;;;;;;;;;;;;;23.53;62.01;101322.28;4954623;28;20301;-62
2022/09/12 12:47:24;;;;;;;;;;;;;;;23.58;59.71;101323.06;4970720;28;19918;-61